sensor_id;sensor_type;location;lat;lon;timestamp;pressure;altitude;pressure_sealevel;temperature;humidity
14902;BME280;7542;49.078;9.194;2023-04-07T00:00:20;98646.28;;;28.35;26.46
14902;BME280;7542;49.078;9.194;2023-04-07T00:01:22;98643.06;;;28.33;26.74
14902;BME280;7542;49.078;9.194;2023-04-07T00:02:24;98644.66;;;28.34;26.62
14902;BME280;7542;49.078;9.194;2023-04-07T00:03:30;98637.91;;;28.37;26.93
14902;BME280;7542;49.078;9.194;2023-04-07T00:04:32;98638.19;;;28.35;26.83
14902;BME280;7542;49.078;9.194;2023-04-07T00:05:34;98636.59;;;28.34;26.77
14902;BME280;7542;49.078;9.194;2023-04-07T00:06:36;98639.28;;;28.34;26.75
14902;BME280;7542;49.078;9.194;2023-04-07T00:07:38;98636.03;;;28.32;26.72
14902;BME280;7542;49.078;9.194;2023-04-07T00:08:56;98641.41;;;28.37;26.53
14902;BME280;7542;49.078;9.194;2023-04-07T00:09:58;98635.50;;;28.35;26.72
14902;BME280;7542;49.078;9.194;2023-04-07T00:11:01;98630.66;;;28.32;26.96
14902;BME280;7542;49.078;9.194;2023-04-07T00:12:04;98635.50;;;28.35;26.56
14902;BME280;7542;49.078;9.194;2023-04-07T00:13:07;98628.75;;;28.33;26.51
14902;BME280;7542;49.078;9.194;2023-04-07T00:14:10;98626.88;;;28.33;26.71
14902;BME280;7542;49.078;9.194;2023-04-07T00:15:12;98621.50;;;28.33;26.71
14902;BME280;7542;49.078;9.194;2023-04-07T00:16:15;98619.84;;;28.32;26.57
14902;BME280;7542;49.078;9.194;2023-04-07T00:17:17;98631.44;;;28.33;26.80
14902;BME280;7542;49.078;9.194;2023-04-07T00:18:19;98625.25;;;28.32;26.65
14902;BME280;7542;49.078;9.194;2023-04-07T00:19:23;98623.66;;;28.31;26.48
14902;BME280;7542;49.078;9.194;2023-04-07T00:20:25;98624.44;;;28.32;26.92
14902;BME280;7542;49.078;9.194;2023-04-07T00:21:27;98617.44;;;28.30;26.72
14902;BME280;7542;49.078;9.194;2023-04-07T00:22:29;98609.06;;;28.32;26.57
14902;BME280;7542;49.078;9.194;2023-04-07T00:23:40;98610.72;;;28.33;26.49
14902;BME280;7542;49.078;9.194;2023-04-07T00:24:43;98614.47;;;28.32;26.71
14902;BME280;7542;49.078;9.194;2023-04-07T00:25:47;98608.25;;;28.32;26.63
14902;BME280;7542;49.078;9.194;2023-04-07T00:26:50;98612.06;;;28.30;26.54
14902;BME280;7542;49.078;9.194;2023-04-07T00:27:52;98611.25;;;28.30;26.68
14902;BME280;7542;49.078;9.194;2023-04-07T00:28:54;98610.44;;;28.29;26.45
14902;BME280;7542;49.078;9.194;2023-04-07T00:29:56;98604.25;;;28.29;26.39
14902;BME280;7542;49.078;9.194;2023-04-07T00:30:58;98607.25;;;28.27;26.51
14902;BME280;7542;49.078;9.194;2023-04-07T00:31:59;98599.16;;;28.27;26.70
14902;BME280;7542;49.078;9.194;2023-04-07T00:33:02;98598.88;;;28.29;26.55
14902;BME280;7542;49.078;9.194;2023-04-07T00:34:05;98601.56;;;28.29;26.40
14902;BME280;7542;49.078;9.194;2023-04-07T00:35:07;98598.31;;;28.27;26.43
14902;BME280;7542;49.078;9.194;2023-04-07T00:36:09;98598.31;;;28.27;26.52
14902;BME280;7542;49.078;9.194;2023-04-07T00:37:15;98600.75;;;28.28;26.57
14902;BME280;7542;49.078;9.194;2023-04-07T00:38:17;98595.06;;;28.30;26.50
14902;BME280;7542;49.078;9.194;2023-04-07T00:39:20;98592.91;;;28.27;26.68
14902;BME280;7542;49.078;9.194;2023-04-07T00:40:23;98589.72;;;28.25;26.63
14902;BME280;7542;49.078;9.194;2023-04-07T00:41:25;98585.13;;;28.25;26.26
14902;BME280;7542;49.078;9.194;2023-04-07T00:42:27;98593.75;;;28.27;26.53
14902;BME280;7542;49.078;9.194;2023-04-07T00:43:28;98585.66;;;28.27;26.34
14902;BME280;7542;49.078;9.194;2023-04-07T00:44:31;98591.31;;;28.26;26.52
14902;BME280;7542;49.078;9.194;2023-04-07T00:45:33;98579.44;;;28.27;26.65
14902;BME280;7542;49.078;9.194;2023-04-07T00:46:36;98578.94;;;28.25;26.43
14902;BME280;7542;49.078;9.194;2023-04-07T00:47:38;98578.94;;;28.25;26.38
14902;BME280;7542;49.078;9.194;2023-04-07T00:48:40;98579.22;;;28.23;26.44
14902;BME280;7542;49.078;9.194;2023-04-07T00:49:43;98566.81;;;28.22;26.32
14902;BME280;7542;49.078;9.194;2023-04-07T00:50:45;98571.94;;;28.24;26.43
14902;BME280;7542;49.078;9.194;2023-04-07T00:51:47;98569.53;;;28.22;26.42
14902;BME280;7542;49.078;9.194;2023-04-07T00:52:50;98563.31;;;28.22;26.47
14902;BME280;7542;49.078;9.194;2023-04-07T00:53:54;98560.59;;;28.22;26.26
14902;BME280;7542;49.078;9.194;2023-04-07T00:54:58;98564.94;;;28.23;26.34
14902;BME280;7542;49.078;9.194;2023-04-07T00:56:01;98566.00;;;28.22;26.56
14902;BME280;7542;49.078;9.194;2023-04-07T00:57:05;98562.25;;;28.23;25.91
14902;BME280;7542;49.078;9.194;2023-04-07T00:58:08;98565.47;;;28.20;26.34
14902;BME280;7542;49.078;9.194;2023-04-07T00:59:10;98567.88;;;28.21;26.36
14902;BME280;7542;49.078;9.194;2023-04-07T01:00:13;98557.69;;;28.18;26.34
14902;BME280;7542;49.078;9.194;2023-04-07T01:01:22;98560.59;;;28.22;26.36
14902;BME280;7542;49.078;9.194;2023-04-07T01:02:35;98556.56;;;28.24;26.49
14902;BME280;7542;49.078;9.194;2023-04-07T01:03:57;98562.47;;;28.26;26.11
14902;BME280;7542;49.078;9.194;2023-04-07T01:05:20;98552.47;;;28.27;26.19
14902;BME280;7542;49.078;9.194;2023-04-07T01:06:32;98552.25;;;28.23;26.35
14902;BME280;7542;49.078;9.194;2023-04-07T01:08:56;98552.00;;;28.20;26.30
14902;BME280;7542;49.078;9.194;2023-04-07T01:10:09;98547.69;;;28.19;26.38
14902;BME280;7542;49.078;9.194;2023-04-07T01:11:27;98551.72;;;28.21;26.31
14902;BME280;7542;49.078;9.194;2023-04-07T01:14:40;98551.19;;;28.19;26.29
14902;BME280;7542;49.078;9.194;2023-04-07T01:15:48;98546.16;;;28.13;26.67
14902;BME280;7542;49.078;9.194;2023-04-07T01:16:56;98544.81;;;28.10;26.58
14902;BME280;7542;49.078;9.194;2023-04-07T01:18:21;98543.41;;;28.18;26.42
14902;BME280;7542;49.078;9.194;2023-04-07T01:19:42;98541.28;;;28.15;26.30
14902;BME280;7542;49.078;9.194;2023-04-07T01:20:50;98545.09;;;28.09;26.41
14902;BME280;7542;49.078;9.194;2023-04-07T01:21:56;98541.09;;;28.06;26.54
14902;BME280;7542;49.078;9.194;2023-04-07T01:23:04;98549.47;;;28.05;26.41
14902;BME280;7542;49.078;9.194;2023-04-07T01:25:26;98545.59;;;28.16;26.21
14902;BME280;7542;49.078;9.194;2023-04-07T01:26:27;98541.28;;;28.15;26.48
14902;BME280;7542;49.078;9.194;2023-04-07T01:29:36;98548.06;;;28.12;26.28
14902;BME280;7542;49.078;9.194;2023-04-07T01:30:43;98534.69;;;28.02;26.25
14902;BME280;7542;49.078;9.194;2023-04-07T01:31:49;98537.13;;;27.98;26.48
14902;BME280;7542;49.078;9.194;2023-04-07T01:32:54;98535.22;;;27.99;26.45
14902;BME280;7542;49.078;9.194;2023-04-07T01:34:00;98530.41;;;27.96;26.36
14902;BME280;7542;49.078;9.194;2023-04-07T01:35:04;98539.59;;;27.95;26.64
14902;BME280;7542;49.078;9.194;2023-04-07T01:36:12;98531.22;;;27.96;26.21
14902;BME280;7542;49.078;9.194;2023-04-07T01:37:16;98529.38;;;27.92;26.54
14902;BME280;7542;49.078;9.194;2023-04-07T01:38:20;98525.88;;;27.91;26.36
14902;BME280;7542;49.078;9.194;2023-04-07T01:39:26;98530.19;;;27.92;26.38
14902;BME280;7542;49.078;9.194;2023-04-07T01:40:29;98524.00;;;27.92;26.39
14902;BME280;7542;49.078;9.194;2023-04-07T01:41:34;98528.28;;;27.93;26.27
14902;BME280;7542;49.078;9.194;2023-04-07T01:42:38;98523.69;;;27.93;26.39
14902;BME280;7542;49.078;9.194;2023-04-07T01:43:41;98522.38;;;27.91;26.56
14902;BME280;7542;49.078;9.194;2023-04-07T01:45:06;98520.94;;;27.98;26.30
14902;BME280;7542;49.078;9.194;2023-04-07T01:46:09;98519.69;;;27.91;26.31
14902;BME280;7542;49.078;9.194;2023-04-07T01:47:11;98519.94;;;27.89;26.58
14902;BME280;7542;49.078;9.194;2023-04-07T01:48:16;98514.84;;;27.88;26.35
14902;BME280;7542;49.078;9.194;2023-04-07T01:49:19;98511.34;;;27.87;26.56
14902;BME280;7542;49.078;9.194;2023-04-07T01:50:23;98511.34;;;27.87;26.54
14902;BME280;7542;49.078;9.194;2023-04-07T01:51:27;98511.06;;;27.89;26.49
14902;BME280;7542;49.078;9.194;2023-04-07T01:52:34;98509.16;;;27.89;26.40
14902;BME280;7542;49.078;9.194;2023-04-07T01:53:38;98514.03;;;27.87;26.39
14902;BME280;7542;49.078;9.194;2023-04-07T01:54:41;98511.34;;;27.87;26.21
14902;BME280;7542;49.078;9.194;2023-04-07T01:55:44;98510.84;;;27.85;26.67
14902;BME280;7542;49.078;9.194;2023-04-07T01:56:46;98508.16;;;27.85;26.41
14902;BME280;7542;49.078;9.194;2023-04-07T01:57:48;98511.94;;;27.84;26.30
14902;BME280;7542;49.078;9.194;2023-04-07T01:58:50;98509.53;;;27.83;26.41
14902;BME280;7542;49.078;9.194;2023-04-07T01:59:52;98513.53;;;27.85;26.38
14902;BME280;7542;49.078;9.194;2023-04-07T02:00:56;98503.84;;;27.84;26.46
14902;BME280;7542;49.078;9.194;2023-04-07T02:01:58;98508.94;;;27.86;26.33
14902;BME280;7542;49.078;9.194;2023-04-07T02:03:10;98510.25;;;27.88;26.25
14902;BME280;7542;49.078;9.194;2023-04-07T02:04:32;98514.00;;;27.92;26.15
14902;BME280;7542;49.078;9.194;2023-04-07T02:05:38;98510.25;;;27.88;26.39
14902;BME280;7542;49.078;9.194;2023-04-07T02:06:49;98512.16;;;27.88;25.96
14902;BME280;7542;49.078;9.194;2023-04-07T02:07:59;98508.66;;;27.87;26.50
14902;BME280;7542;49.078;9.194;2023-04-07T02:09:06;98507.34;;;27.85;26.27
14902;BME280;7542;49.078;9.194;2023-04-07T02:10:16;98501.94;;;27.85;26.22
14902;BME280;7542;49.078;9.194;2023-04-07T02:11:23;98500.34;;;27.84;26.24
14902;BME280;7542;49.078;9.194;2023-04-07T02:12:28;98503.31;;;27.82;26.36
14902;BME280;7542;49.078;9.194;2023-04-07T02:13:34;98496.56;;;27.85;26.42
14902;BME280;7542;49.078;9.194;2023-04-07T02:14:39;98495.81;;;27.79;26.44
14902;BME280;7542;49.078;9.194;2023-04-07T02:15:43;98494.44;;;27.82;26.46
14902;BME280;7542;49.078;9.194;2023-04-07T02:16:49;98501.72;;;27.81;26.47
14902;BME280;7542;49.078;9.194;2023-04-07T02:17:58;98499.03;;;27.81;26.39
14902;BME280;7542;49.078;9.194;2023-04-07T02:19:02;98498.22;;;27.81;26.21
14902;BME280;7542;49.078;9.194;2023-04-07T02:20:11;98499.03;;;27.81;26.50
14902;BME280;7542;49.078;9.194;2023-04-07T02:21:15;98501.22;;;27.79;26.52
14902;BME280;7542;49.078;9.194;2023-04-07T02:22:18;98504.97;;;27.78;26.53
14902;BME280;7542;49.078;9.194;2023-04-07T02:23:21;98497.16;;;27.77;26.31
14902;BME280;7542;49.078;9.194;2023-04-07T02:24:23;98508.22;;;27.75;26.48
14902;BME280;7542;49.078;9.194;2023-04-07T02:25:31;98501.22;;;27.79;26.27
14902;BME280;7542;49.078;9.194;2023-04-07T02:26:34;98504.44;;;27.76;26.50
14902;BME280;7542;49.078;9.194;2023-04-07T02:27:36;98506.63;;;27.74;26.44
14902;BME280;7542;49.078;9.194;2023-04-07T02:28:38;98505.03;;;27.73;26.47
14902;BME280;7542;49.078;9.194;2023-04-07T02:29:40;98500.44;;;27.73;26.29
14902;BME280;7542;49.078;9.194;2023-04-07T02:30:42;98496.16;;;27.72;26.30
14902;BME280;7542;49.078;9.194;2023-04-07T02:31:47;98496.66;;;27.75;26.35
14902;BME280;7542;49.078;9.194;2023-04-07T02:32:49;98501.53;;;27.72;26.36
14902;BME280;7542;49.078;9.194;2023-04-07T02:33:51;98494.31;;;27.68;26.14
14902;BME280;7542;49.078;9.194;2023-04-07T02:34:54;98497.22;;;27.71;26.47
14902;BME280;7542;49.078;9.194;2023-04-07T02:35:56;98485.13;;;27.69;26.47
14902;BME280;7542;49.078;9.194;2023-04-07T02:37:00;98492.13;;;27.70;26.42
14902;BME280;7542;49.078;9.194;2023-04-07T02:38:04;98487.84;;;27.69;26.29
14902;BME280;7542;49.078;9.194;2023-04-07T02:39:07;98486.22;;;27.68;25.95
14902;BME280;7542;49.078;9.194;2023-04-07T02:40:12;98484.34;;;27.68;26.33
14902;BME280;7542;49.078;9.194;2023-04-07T02:41:14;98481.66;;;27.68;26.47
14902;BME280;7542;49.078;9.194;2023-04-07T02:42:16;98484.88;;;27.65;26.36
14902;BME280;7542;49.078;9.194;2023-04-07T02:43:20;98477.31;;;27.67;26.31
14902;BME280;7542;49.078;9.194;2023-04-07T02:44:25;98481.91;;;27.67;26.49
14902;BME280;7542;49.078;9.194;2023-04-07T02:45:27;98479.22;;;27.67;26.42
14902;BME280;7542;49.078;9.194;2023-04-07T02:46:30;98480.28;;;27.66;26.32
14902;BME280;7542;49.078;9.194;2023-04-07T02:47:35;98479.22;;;27.67;26.33
14902;BME280;7542;49.078;9.194;2023-04-07T02:48:39;98476.81;;;27.65;26.45
14902;BME280;7542;49.078;9.194;2023-04-07T02:49:41;98476.00;;;27.65;26.59
14902;BME280;7542;49.078;9.194;2023-04-07T02:50:45;98472.47;;;27.64;26.50
14902;BME280;7542;49.078;9.194;2023-04-07T02:51:47;98475.16;;;27.64;26.43
14902;BME280;7542;49.078;9.194;2023-04-07T02:52:49;98468.16;;;27.63;26.38
14902;BME280;7542;49.078;9.194;2023-04-07T02:53:52;98477.06;;;27.64;26.26
14902;BME280;7542;49.078;9.194;2023-04-07T02:54:55;98473.56;;;27.63;26.27
14902;BME280;7542;49.078;9.194;2023-04-07T02:56:00;98486.22;;;27.63;26.45
14902;BME280;7542;49.078;9.194;2023-04-07T02:57:02;98472.25;;;27.61;26.36
14902;BME280;7542;49.078;9.194;2023-04-07T02:58:04;98475.75;;;27.61;26.29
14902;BME280;7542;49.078;9.194;2023-04-07T02:59:07;98474.94;;;27.61;26.39
14902;BME280;7542;49.078;9.194;2023-04-07T03:00:11;98479.22;;;27.62;26.48
14902;BME280;7542;49.078;9.194;2023-04-07T03:01:14;98474.13;;;27.60;26.41
14902;BME280;7542;49.078;9.194;2023-04-07T03:02:18;98473.34;;;27.60;26.30
14902;BME280;7542;49.078;9.194;2023-04-07T03:03:20;98470.34;;;27.61;26.39
14902;BME280;7542;49.078;9.194;2023-04-07T03:04:22;98470.63;;;27.60;26.42
14902;BME280;7542;49.078;9.194;2023-04-07T03:05:24;98471.72;;;27.59;26.35
14902;BME280;7542;49.078;9.194;2023-04-07T03:06:27;98474.72;;;27.57;26.14
14902;BME280;7542;49.078;9.194;2023-04-07T03:07:32;98471.72;;;27.59;26.56
14902;BME280;7542;49.078;9.194;2023-04-07T03:08:35;98467.16;;;27.59;26.44
14902;BME280;7542;49.078;9.194;2023-04-07T03:09:37;98469.03;;;27.59;26.44
14902;BME280;7542;49.078;9.194;2023-04-07T03:10:39;98468.50;;;27.57;26.66
14902;BME280;7542;49.078;9.194;2023-04-07T03:11:42;98467.16;;;27.59;26.28
14902;BME280;7542;49.078;9.194;2023-04-07T03:12:44;98464.75;;;27.58;26.35
14902;BME280;7542;49.078;9.194;2023-04-07T03:13:46;98465.78;;;27.57;26.37
14902;BME280;7542;49.078;9.194;2023-04-07T03:14:48;98460.69;;;27.55;26.26
14902;BME280;7542;49.078;9.194;2023-04-07T03:15:51;98464.19;;;27.56;26.33
14902;BME280;7542;49.078;9.194;2023-04-07T03:16:53;98466.09;;;27.55;26.37
14902;BME280;7542;49.078;9.194;2023-04-07T03:17:55;98472.84;;;27.53;26.31
14902;BME280;7542;49.078;9.194;2023-04-07T03:18:57;98464.47;;;27.54;26.42
14902;BME280;7542;49.078;9.194;2023-04-07T03:19:59;98461.28;;;27.52;26.41
14902;BME280;7542;49.078;9.194;2023-04-07T03:21:03;98462.06;;;27.53;26.39
14902;BME280;7542;49.078;9.194;2023-04-07T03:22:05;98465.06;;;27.51;26.57
14902;BME280;7542;49.078;9.194;2023-04-07T03:23:07;98460.47;;;27.52;26.47
14902;BME280;7542;49.078;9.194;2023-04-07T03:24:11;98460.47;;;27.52;26.18
14902;BME280;7542;49.078;9.194;2023-04-07T03:25:14;98460.47;;;27.52;26.47
14902;BME280;7542;49.078;9.194;2023-04-07T03:26:16;98457.50;;;27.53;26.52
14902;BME280;7542;49.078;9.194;2023-04-07T03:27:18;98458.88;;;27.51;26.38
14902;BME280;7542;49.078;9.194;2023-04-07T03:28:21;98449.69;;;27.52;26.40
14902;BME280;7542;49.078;9.194;2023-04-07T03:29:24;98449.19;;;27.50;26.49
14902;BME280;7542;49.078;9.194;2023-04-07T03:30:26;98448.09;;;27.51;26.51
14902;BME280;7542;49.078;9.194;2023-04-07T03:31:29;98444.59;;;27.50;26.20
14902;BME280;7542;49.078;9.194;2023-04-07T03:32:32;98450.28;;;27.49;26.44
14902;BME280;7542;49.078;9.194;2023-04-07T03:33:34;98455.66;;;27.49;26.45
14902;BME280;7542;49.078;9.194;2023-04-07T03:34:36;98454.84;;;27.48;26.36
14902;BME280;7542;49.078;9.194;2023-04-07T03:35:38;98449.75;;;27.47;26.45
14902;BME280;7542;49.078;9.194;2023-04-07T03:36:40;98450.56;;;27.47;26.21
14902;BME280;7542;49.078;9.194;2023-04-07T03:37:42;98451.38;;;27.48;26.57
14902;BME280;7542;49.078;9.194;2023-04-07T03:38:46;98440.84;;;27.46;26.31
14902;BME280;7542;49.078;9.194;2023-04-07T03:39:50;98447.88;;;27.47;26.53
14902;BME280;7542;49.078;9.194;2023-04-07T03:40:52;98452.72;;;27.45;26.43
14902;BME280;7542;49.078;9.194;2023-04-07T03:41:54;98444.63;;;27.45;26.32
14902;BME280;7542;49.078;9.194;2023-04-07T03:42:56;98448.13;;;27.45;26.44
14902;BME280;7542;49.078;9.194;2023-04-07T03:43:58;98443.81;;;27.44;26.33
14902;BME280;7542;49.078;9.194;2023-04-07T03:45:01;98442.75;;;27.45;26.43
14902;BME280;7542;49.078;9.194;2023-04-07T03:46:04;98434.44;;;27.42;26.25
14902;BME280;7542;49.078;9.194;2023-04-07T03:47:06;98443.31;;;27.42;26.26
14902;BME280;7542;49.078;9.194;2023-04-07T03:48:08;98447.59;;;27.43;26.36
14902;BME280;7542;49.078;9.194;2023-04-07T03:49:13;98443.31;;;27.42;26.50
14902;BME280;7542;49.078;9.194;2023-04-07T03:50:15;98441.41;;;27.43;26.42
14902;BME280;7542;49.078;9.194;2023-04-07T03:51:17;98446.00;;;27.42;26.43
14902;BME280;7542;49.078;9.194;2023-04-07T03:52:19;98442.50;;;27.42;26.51
14902;BME280;7542;49.078;9.194;2023-04-07T03:53:21;98441.72;;;27.41;26.52
14902;BME280;7542;49.078;9.194;2023-04-07T03:54:23;98448.19;;;27.40;26.29
14902;BME280;7542;49.078;9.194;2023-04-07T03:55:25;98440.09;;;27.40;26.46
14902;BME280;7542;49.078;9.194;2023-04-07T03:56:27;98442.78;;;27.40;26.34
14902;BME280;7542;49.078;9.194;2023-04-07T03:57:29;98442.00;;;27.40;26.48
14902;BME280;7542;49.078;9.194;2023-04-07T03:58:31;98445.25;;;27.37;26.37
14902;BME280;7542;49.078;9.194;2023-04-07T03:59:34;98443.09;;;27.39;26.43
14902;BME280;7542;49.078;9.194;2023-04-07T04:00:36;98446.88;;;27.38;26.31
14902;BME280;7542;49.078;9.194;2023-04-07T04:01:38;98447.66;;;27.38;26.27
14902;BME280;7542;49.078;9.194;2023-04-07T04:02:41;98456.53;;;27.39;26.50
14902;BME280;7542;49.078;9.194;2023-04-07T04:03:46;98444.69;;;27.40;26.44
14902;BME280;7542;49.078;9.194;2023-04-07T04:04:48;98451.97;;;27.39;26.18
14902;BME280;7542;49.078;9.194;2023-04-07T04:05:50;98448.75;;;27.37;26.53
14902;BME280;7542;49.078;9.194;2023-04-07T04:06:53;98451.97;;;27.39;26.52
14902;BME280;7542;49.078;9.194;2023-04-07T04:07:55;98444.97;;;27.38;26.44
14902;BME280;7542;49.078;9.194;2023-04-07T04:08:57;98445.25;;;27.37;26.49
14902;BME280;7542;49.078;9.194;2023-04-07T04:09:59;98442.84;;;27.35;26.63
14902;BME280;7542;49.078;9.194;2023-04-07T04:11:02;98443.38;;;27.37;26.36
14902;BME280;7542;49.078;9.194;2023-04-07T04:12:05;98440.97;;;27.36;26.53
14902;BME280;7542;49.078;9.194;2023-04-07T04:13:07;98446.88;;;27.38;26.35
14902;BME280;7542;49.078;9.194;2023-04-07T04:14:08;98440.16;;;27.35;26.34
14902;BME280;7542;49.078;9.194;2023-04-07T04:15:10;98441.47;;;27.38;26.23
14902;BME280;7542;49.078;9.194;2023-04-07T04:16:12;98438.50;;;27.39;26.71
14902;BME280;7542;49.078;9.194;2023-04-07T04:17:15;98431.81;;;27.37;26.56
14902;BME280;7542;49.078;9.194;2023-04-07T04:18:17;98437.47;;;27.35;26.56
14902;BME280;7542;49.078;9.194;2023-04-07T04:19:21;98433.94;;;27.35;26.47
14902;BME280;7542;49.078;9.194;2023-04-07T04:20:25;98439.06;;;27.36;26.40
14902;BME280;7542;49.078;9.194;2023-04-07T04:21:27;98438.28;;;27.36;26.31
14902;BME280;7542;49.078;9.194;2023-04-07T04:22:29;98433.41;;;27.38;26.47
14902;BME280;7542;49.078;9.194;2023-04-07T04:23:31;98436.38;;;27.36;26.32
14902;BME280;7542;49.078;9.194;2023-04-07T04:24:33;98431.25;;;27.35;26.63
14902;BME280;7542;49.078;9.194;2023-04-07T04:25:35;98439.34;;;27.35;26.40
14902;BME280;7542;49.078;9.194;2023-04-07T04:26:40;98434.78;;;27.35;26.34
14902;BME280;7542;49.078;9.194;2023-04-07T04:27:42;98434.78;;;27.35;26.32
14902;BME280;7542;49.078;9.194;2023-04-07T04:28:44;98447.16;;;27.36;26.36
14902;BME280;7542;49.078;9.194;2023-04-07T04:29:46;98438.28;;;27.36;26.65
14902;BME280;7542;49.078;9.194;2023-04-07T04:30:51;98437.47;;;27.35;26.55
14902;BME280;7542;49.078;9.194;2023-04-07T04:31:53;98437.19;;;27.37;26.40
14902;BME280;7542;49.078;9.194;2023-04-07T04:32:55;98437.47;;;27.35;26.68
14902;BME280;7542;49.078;9.194;2023-04-07T04:33:57;98435.03;;;27.34;26.58
14902;BME280;7542;49.078;9.194;2023-04-07T04:34:59;98433.94;;;27.35;26.49
14902;BME280;7542;49.078;9.194;2023-04-07T04:36:01;98433.94;;;27.35;26.48
14902;BME280;7542;49.078;9.194;2023-04-07T04:37:03;98436.94;;;27.33;26.51
14902;BME280;7542;49.078;9.194;2023-04-07T04:38:07;98438.53;;;27.34;26.48
14902;BME280;7542;49.078;9.194;2023-04-07T04:39:09;98436.94;;;27.33;26.57
14902;BME280;7542;49.078;9.194;2023-04-07T04:40:12;98440.16;;;27.35;26.51
14902;BME280;7542;49.078;9.194;2023-04-07T04:41:15;98427.50;;;27.36;26.40
14902;BME280;7542;49.078;9.194;2023-04-07T04:42:17;98436.63;;;27.35;26.69
14902;BME280;7542;49.078;9.194;2023-04-07T04:43:19;98433.16;;;27.34;26.51
14902;BME280;7542;49.078;9.194;2023-04-07T04:44:20;98440.41;;;27.34;26.55
14902;BME280;7542;49.078;9.194;2023-04-07T04:45:22;98432.34;;;27.34;26.37
14902;BME280;7542;49.078;9.194;2023-04-07T04:46:25;98444.72;;;27.35;26.38
14902;BME280;7542;49.078;9.194;2023-04-07T04:47:28;98432.34;;;27.34;26.43
14902;BME280;7542;49.078;9.194;2023-04-07T04:48:30;98440.16;;;27.35;26.60
14902;BME280;7542;49.078;9.194;2023-04-07T04:49:32;98433.16;;;27.34;26.48
14902;BME280;7542;49.078;9.194;2023-04-07T04:50:34;98431.53;;;27.33;26.67
14902;BME280;7542;49.078;9.194;2023-04-07T04:51:37;98437.72;;;27.34;26.70
14902;BME280;7542;49.078;9.194;2023-04-07T04:52:38;98436.38;;;27.36;26.54
14902;BME280;7542;49.078;9.194;2023-04-07T04:53:41;98439.34;;;27.35;26.50
14902;BME280;7542;49.078;9.194;2023-04-07T04:54:43;98433.94;;;27.35;26.64
14902;BME280;7542;49.078;9.194;2023-04-07T04:55:45;98433.94;;;27.35;26.68
14902;BME280;7542;49.078;9.194;2023-04-07T04:56:52;98440.69;;;27.37;26.63
14902;BME280;7542;49.078;9.194;2023-04-07T04:57:54;98432.59;;;27.37;26.73
14902;BME280;7542;49.078;9.194;2023-04-07T04:58:56;98433.69;;;27.36;26.67
14902;BME280;7542;49.078;9.194;2023-04-07T04:59:58;98431.25;;;27.35;26.77
14902;BME280;7542;49.078;9.194;2023-04-07T05:01:00;98431.81;;;27.37;26.88
14902;BME280;7542;49.078;9.194;2023-04-07T05:02:03;98439.63;;;27.33;26.68
14902;BME280;7542;49.078;9.194;2023-04-07T05:03:07;98433.16;;;27.34;26.80
14902;BME280;7542;49.078;9.194;2023-04-07T05:04:10;98431.53;;;27.33;26.66
14902;BME280;7542;49.078;9.194;2023-04-07T05:05:14;98428.34;;;27.31;26.58
14902;BME280;7542;49.078;9.194;2023-04-07T05:06:18;98433.69;;;27.36;26.72
14902;BME280;7542;49.078;9.194;2023-04-07T05:07:20;98437.72;;;27.34;26.84
14902;BME280;7542;49.078;9.194;2023-04-07T05:08:22;98435.31;;;27.32;26.75
14902;BME280;7542;49.078;9.194;2023-04-07T05:09:24;98438.53;;;27.34;26.61
14902;BME280;7542;49.078;9.194;2023-04-07T05:10:27;98434.22;;;27.33;26.86
14902;BME280;7542;49.078;9.194;2023-04-07T05:11:30;98433.16;;;27.34;26.88
14902;BME280;7542;49.078;9.194;2023-04-07T05:12:32;98435.31;;;27.32;27.02
14902;BME280;7542;49.078;9.194;2023-04-07T05:13:34;98433.44;;;27.33;26.76
14902;BME280;7542;49.078;9.194;2023-04-07T05:14:36;98432.63;;;27.32;26.74
14902;BME280;7542;49.078;9.194;2023-04-07T05:15:40;98438.81;;;27.33;26.88
14902;BME280;7542;49.078;9.194;2023-04-07T05:16:43;98439.09;;;27.31;26.83
14902;BME280;7542;49.078;9.194;2023-04-07T05:17:45;98444.19;;;27.33;26.74
14902;BME280;7542;49.078;9.194;2023-04-07T05:18:51;98442.59;;;27.32;26.77
14902;BME280;7542;49.078;9.194;2023-04-07T05:19:53;98440.19;;;27.30;26.81
14902;BME280;7542;49.078;9.194;2023-04-07T05:20:55;98437.50;;;27.30;26.73
14902;BME280;7542;49.078;9.194;2023-04-07T05:21:57;98437.50;;;27.30;26.41
14902;BME280;7542;49.078;9.194;2023-04-07T05:22:59;98433.72;;;27.31;26.74
14902;BME280;7542;49.078;9.194;2023-04-07T05:24:01;98439.09;;;27.31;26.75
14902;BME280;7542;49.078;9.194;2023-04-07T05:25:04;98431.31;;;27.30;26.59
14902;BME280;7542;49.078;9.194;2023-04-07T05:26:06;98432.13;;;27.30;26.90
14902;BME280;7542;49.078;9.194;2023-04-07T05:27:08;98435.88;;;27.29;26.20
14902;BME280;7542;49.078;9.194;2023-04-07T05:28:10;98427.81;;;27.29;26.87
14902;BME280;7542;49.078;9.194;2023-04-07T05:29:12;98429.72;;;27.29;26.62
14902;BME280;7542;49.078;9.194;2023-04-07T05:30:14;98435.09;;;27.29;26.79
14902;BME280;7542;49.078;9.194;2023-04-07T05:31:19;98436.97;;;27.28;26.90
14902;BME280;7542;49.078;9.194;2023-04-07T05:32:21;98434.81;;;27.30;26.86
14902;BME280;7542;49.078;9.194;2023-04-07T05:33:23;98433.50;;;27.28;26.81
14902;BME280;7542;49.078;9.194;2023-04-07T05:34:25;98433.50;;;27.28;26.89
14902;BME280;7542;49.078;9.194;2023-04-07T05:35:28;98430.00;;;27.27;26.73
14902;BME280;7542;49.078;9.194;2023-04-07T05:36:30;98428.09;;;27.28;26.83
14902;BME280;7542;49.078;9.194;2023-04-07T05:37:32;98431.59;;;27.28;26.80
14902;BME280;7542;49.078;9.194;2023-04-07T05:38:36;98433.78;;;27.26;26.63
14902;BME280;7542;49.078;9.194;2023-04-07T05:39:38;98443.47;;;27.27;26.95
14902;BME280;7542;49.078;9.194;2023-04-07T05:40:41;98435.88;;;27.29;26.68
14902;BME280;7542;49.078;9.194;2023-04-07T05:41:44;98440.25;;;27.25;26.72
14902;BME280;7542;49.078;9.194;2023-04-07T05:42:46;98439.16;;;27.26;26.97
14902;BME280;7542;49.078;9.194;2023-04-07T05:43:48;98440.25;;;27.25;26.83
14902;BME280;7542;49.078;9.194;2023-04-07T05:44:51;98443.47;;;27.22;27.14
14902;BME280;7542;49.078;9.194;2023-04-07T05:45:53;98446.44;;;27.26;26.72
14902;BME280;7542;49.078;9.194;2023-04-07T05:46:55;98437.56;;;27.25;26.67
14902;BME280;7542;49.078;9.194;2023-04-07T05:47:57;98445.34;;;27.27;26.71